Time;durP1;ratioP1;P1;durP2;ratioP2;P2;SDS_P1;SDS_P2;PMS_P1;PMS_P2;Temp;Humidity;BMP_temperature;BMP_pressure;BME280_temperature;BME280_humidity;BME280_pressure;Samples;Min_cycle;Max_cycle;Signal;HPM_P1;HPM_P2
2023/06/10 00:00:05;;;;;;;6.47;5.43;;;;;;;;;;511020;28;1014;-77
2023/06/10 00:00:21;;;;;;;6.25;5.43;;;;;;;;;;510443;28;1469;-75
2023/06/10 00:00:41;;;;;;;5.78;5.20;;;;;;;;;;507996;28;1331;-76
2023/06/10 00:00:56;;;;;;;6.53;5.28;;;;;;;;;;508282;28;1395;-77
2023/06/10 00:01:12;;;;;;;6.70;5.35;;;;;;;;;;507366;28;1450;-75
2023/06/10 00:01:28;;;;;;;6.68;5.22;;;;;;;;;;509409;28;1324;-76
2023/06/10 00:01:47;;;;;;;6.20;5.07;;;;;;;;;;507098;28;1258;-75
2023/06/10 00:02:03;;;;;;;6.45;5.30;;;;;;;;;;508512;28;1310;-75
2023/06/10 00:02:19;;;;;;;7.15;5.25;;;;;;;;;;506407;28;1316;-75
2023/06/10 00:02:35;;;;;;;6.55;5.28;;;;;;;;;;506896;28;1327;-76
2023/06/10 00:02:51;;;;;;;6.00;5.35;;;;;;;;;;506866;28;1293;-77
2023/06/10 00:03:08;;;;;;;6.18;5.32;;;;;;;;;;507228;28;1092;-76
2023/06/10 00:03:24;;;;;;;6.70;5.40;;;;;;;;;;506773;28;1466;-76
2023/06/10 00:03:41;;;;;;;6.20;5.22;;;;;;;;;;508302;28;1268;-76
2023/06/10 00:03:57;;;;;;;5.93;5.30;;;;;;;;;;508071;28;1408;-75
2023/06/10 00:04:19;;;;;;;7.50;5.47;;;;;;;;;;506029;28;1799;-77
2023/06/10 00:04:36;;;;;;;6.72;5.32;;;;;;;;;;507762;28;1414;-78
2023/06/10 00:04:57;;;;;;;5.88;5.28;;;;;;;;;;507384;28;1301;-76
2023/06/10 00:05:13;;;;;;;6.20;5.20;;;;;;;;;;508128;28;1545;-76
2023/06/10 00:05:32;;;;;;;6.32;5.38;;;;;;;;;;509239;28;1161;-76
2023/06/10 00:05:47;;;;;;;5.95;5.35;;;;;;;;;;508563;28;1226;-76
2023/06/10 00:06:05;;;;;;;5.68;5.18;;;;;;;;;;508340;28;978;-76
2023/06/10 00:06:24;;;;;;;6.15;5.03;;;;;;;;;;505952;28;1413;-76
2023/06/10 00:06:39;;;;;;;7.20;5.20;;;;;;;;;;506754;28;1458;-78
2023/06/10 00:06:55;;;;;;;6.70;5.30;;;;;;;;;;506857;28;1387;-76
2023/06/10 00:07:11;;;;;;;6.35;5.50;;;;;;;;;;508222;28;955;-76
2023/06/10 00:07:26;;;;;;;6.47;5.63;;;;;;;;;;507984;28;1117;-75
2023/06/10 00:07:42;;;;;;;5.93;5.33;;;;;;;;;;507898;28;1297;-76
2023/06/10 00:07:59;;;;;;;6.32;5.40;;;;;;;;;;506378;28;1202;-76
2023/06/10 00:08:15;;;;;;;7.90;5.70;;;;;;;;;;503845;28;1547;-76
2023/06/10 00:08:33;;;;;;;7.68;5.57;;;;;;;;;;504426;28;1252;-76
2023/06/10 00:08:48;;;;;;;6.82;5.25;;;;;;;;;;503164;28;1469;-77
2023/06/10 00:09:07;;;;;;;6.35;5.22;;;;;;;;;;503192;28;1021;-75
2023/06/10 00:09:23;;;;;;;7.30;5.47;;;;;;;;;;503160;28;1514;-76
2023/06/10 00:09:41;;;;;;;8.30;5.60;;;;;;;;;;502363;28;1355;-76
2023/06/10 00:09:57;;;;;;;7.15;5.30;;;;;;;;;;502687;28;1392;-75
2023/06/10 00:10:12;;;;;;;5.97;5.37;;;;;;;;;;501694;28;939;-76
2023/06/10 00:10:28;;;;;;;5.88;5.28;;;;;;;;;;504017;28;1363;-75
2023/06/10 00:10:43;;;;;;;6.37;5.00;;;;;;;;;;505116;28;932;-76
2023/06/10 00:10:59;;;;;;;7.38;4.97;;;;;;;;;;506385;28;1390;-76
2023/06/10 00:11:14;;;;;;;7.33;5.40;;;;;;;;;;507197;28;1084;-76
2023/06/10 00:11:33;;;;;;;7.60;5.50;;;;;;;;;;507796;28;1335;-76
2023/06/10 00:11:48;;;;;;;6.65;5.30;;;;;;;;;;509213;28;1562;-76
2023/06/10 00:12:06;;;;;;;7.75;5.45;;;;;;;;;;508817;28;1035;-75
2023/06/10 00:12:22;;;;;;;8.27;5.40;;;;;;;;;;509728;28;1363;-74
2023/06/10 00:12:38;;;;;;;8.13;5.40;;;;;;;;;;510269;28;1256;-75
2023/06/10 00:12:54;;;;;;;7.38;5.28;;;;;;;;;;507584;28;1407;-75
2023/06/10 00:13:09;;;;;;;6.30;5.10;;;;;;;;;;509592;28;1390;-77
2023/06/10 00:13:25;;;;;;;6.07;5.32;;;;;;;;;;504812;28;1386;-75
2023/06/10 00:13:41;;;;;;;6.63;5.57;;;;;;;;;;506702;28;1087;-75
2023/06/10 00:13:57;;;;;;;6.40;5.40;;;;;;;;;;507884;28;1596;-75
2023/06/10 00:14:12;;;;;;;5.78;5.18;;;;;;;;;;508651;28;1380;-75
2023/06/10 00:14:28;;;;;;;5.88;5.28;;;;;;;;;;508103;28;1495;-74
2023/06/10 00:15:05;;;;;;;5.85;5.20;;;;;;;;;;510417;28;1419;-77
2023/06/10 00:15:21;;;;;;;5.88;5.30;;;;;;;;;;510068;28;1021;-75
2023/06/10 00:15:37;;;;;;;6.40;5.50;;;;;;;;;;508001;28;1812;-76
2023/06/10 00:15:53;;;;;;;6.97;5.50;;;;;;;;;;505847;28;1458;-76
2023/06/10 00:16:09;;;;;;;6.28;5.57;;;;;;;;;;507103;28;1358;-75
2023/06/10 00:16:25;;;;;;;6.32;5.45;;;;;;;;;;506613;28;1344;-76
2023/06/10 00:16:44;;;;;;;5.85;5.22;;;;;;;;;;507531;28;1307;-76
2023/06/10 00:17:00;;;;;;;6.03;5.32;;;;;;;;;;507505;28;1222;-75
2023/06/10 00:17:16;;;;;;;6.68;5.47;;;;;;;;;;507046;28;1308;-75
2023/06/10 00:17:32;;;;;;;6.70;5.40;;;;;;;;;;507696;28;1350;-76
2023/06/10 00:17:48;;;;;;;8.30;5.78;;;;;;;;;;506309;28;1296;-75
2023/06/10 00:18:05;;;;;;;8.00;5.70;;;;;;;;;;506261;28;1470;-76
2023/06/10 00:18:21;;;;;;;6.40;5.43;;;;;;;;;;505805;28;1111;-75
2023/06/10 00:18:38;;;;;;;6.07;5.47;;;;;;;;;;508482;28;1447;-77
2023/06/10 00:19:01;;;;;;;5.80;5.20;;;;;;;;;;508434;28;1073;-76
2023/06/10 00:19:18;;;;;;;5.70;5.10;;;;;;;;;;508957;28;1870;-74
2023/06/10 00:19:35;;;;;;;5.90;5.30;;;;;;;;;;510591;28;1488;-75
2023/06/10 00:19:51;;;;;;;6.00;5.40;;;;;;;;;;513437;28;1141;-76
2023/06/10 00:20:11;;;;;;;6.13;5.32;;;;;;;;;;512744;28;1325;-76
2023/06/10 00:20:27;;;;;;;6.80;5.20;;;;;;;;;;511968;28;1410;-75
2023/06/10 00:20:43;;;;;;;6.10;5.43;;;;;;;;;;510415;28;1339;-77
2023/06/10 00:21:05;;;;;;;6.18;5.57;;;;;;;;;;508563;28;1241;-76
2023/06/10 00:21:24;;;;;;;7.20;5.60;;;;;;;;;;508297;28;1529;-75
2023/06/10 00:21:40;;;;;;;7.97;5.65;;;;;;;;;;507616;28;1619;-77
2023/06/10 00:21:57;;;;;;;7.63;5.50;;;;;;;;;;507331;28;1353;-76
2023/06/10 00:22:12;;;;;;;6.22;5.40;;;;;;;;;;507988;28;1414;-76
2023/06/10 00:22:29;;;;;;;5.87;5.30;;;;;;;;;;507735;28;1245;-76
2023/06/10 00:22:45;;;;;;;5.80;5.28;;;;;;;;;;510155;28;1463;-76
2023/06/10 00:23:01;;;;;;;6.05;5.45;;;;;;;;;;509704;28;1434;-76
2023/06/10 00:23:17;;;;;;;6.05;5.45;;;;;;;;;;508562;28;1424;-76
2023/06/10 00:23:37;;;;;;;6.88;5.70;;;;;;;;;;507881;28;1046;-76
2023/06/10 00:23:53;;;;;;;6.50;5.70;;;;;;;;;;508048;28;1318;-76
2023/06/10 00:24:11;;;;;;;6.68;5.65;;;;;;;;;;507550;28;1291;-76
2023/06/10 00:24:27;;;;;;;7.47;5.75;;;;;;;;;;509888;28;1407;-76
2023/06/10 00:24:43;;;;;;;6.43;5.50;;;;;;;;;;505691;28;1294;-76
2023/06/10 00:24:59;;;;;;;5.88;5.30;;;;;;;;;;508342;28;1337;-77
2023/06/10 00:25:14;;;;;;;5.97;5.40;;;;;;;;;;507534;28;1160;-76
2023/06/10 00:25:30;;;;;;;6.50;5.55;;;;;;;;;;507892;28;946;-76
2023/06/10 00:25:46;;;;;;;7.25;5.63;;;;;;;;;;508131;28;941;-76
2023/06/10 00:26:02;;;;;;;6.47;5.32;;;;;;;;;;509104;28;1458;-78
2023/06/10 00:26:18;;;;;;;5.95;5.35;;;;;;;;;;507411;28;1446;-76
2023/06/10 00:26:34;;;;;;;6.10;5.50;;;;;;;;;;506816;28;987;-76
2023/06/10 00:26:50;;;;;;;6.45;5.47;;;;;;;;;;506388;28;1237;-77
2023/06/10 00:27:06;;;;;;;7.60;5.30;;;;;;;;;;505879;28;1211;-76
2023/06/10 00:27:31;;;;;;;6.97;5.20;;;;;;;;;;506893;28;1438;-76
2023/06/10 00:27:46;;;;;;;7.43;5.30;;;;;;;;;;507724;28;1404;-75
2023/06/10 00:28:02;;;;;;;7.35;5.32;;;;;;;;;;508640;28;1323;-77
2023/06/10 00:28:21;;;;;;;6.10;5.47;;;;;;;;;;511884;28;1310;-74
2023/06/10 00:28:37;;;;;;;6.10;5.50;;;;;;;;;;510757;28;1445;-75
2023/06/10 00:28:52;;;;;;;6.07;5.47;;;;;;;;;;507754;28;1284;-75
2023/06/10 00:29:08;;;;;;;5.90;5.35;;;;;;;;;;507952;28;1242;-76
2023/06/10 00:29:24;;;;;;;6.30;5.65;;;;;;;;;;504383;28;1385;-77
2023/06/10 00:29:40;;;;;;;7.00;5.63;;;;;;;;;;505274;28;1495;-75
2023/06/10 00:29:55;;;;;;;8.15;5.57;;;;;;;;;;506725;28;1326;-76
2023/06/10 00:30:12;;;;;;;8.10;5.70;;;;;;;;;;505216;28;1311;-76
2023/06/10 00:30:27;;;;;;;7.35;5.65;;;;;;;;;;506511;28;1370;-77
2023/06/10 00:30:43;;;;;;;7.03;5.63;;;;;;;;;;507984;28;1335;-76
2023/06/10 00:30:59;;;;;;;6.70;5.55;;;;;;;;;;510127;28;1224;-76
2023/06/10 00:31:18;;;;;;;6.03;5.43;;;;;;;;;;509458;28;1054;-75
2023/06/10 00:31:34;;;;;;;7.05;5.22;;;;;;;;;;506836;28;1647;-76
2023/06/10 00:31:50;;;;;;;7.32;5.38;;;;;;;;;;508374;28;1322;-77
2023/06/10 00:32:06;;;;;;;7.17;5.20;;;;;;;;;;508625;28;1406;-76
2023/06/10 00:32:22;;;;;;;6.22;5.00;;;;;;;;;;509218;28;1593;-77
2023/06/10 00:32:41;;;;;;;5.70;5.20;;;;;;;;;;508585;28;948;-77
2023/06/10 00:32:57;;;;;;;5.95;5.35;;;;;;;;;;506828;28;1482;-77
2023/06/10 00:33:13;;;;;;;6.40;5.25;;;;;;;;;;508038;28;1110;-77
2023/06/10 00:33:32;;;;;;;7.68;5.47;;;;;;;;;;507779;28;1403;-76
2023/06/10 00:33:47;;;;;;;7.55;5.70;;;;;;;;;;508043;28;1922;-77
2023/06/10 00:34:03;;;;;;;6.70;5.35;;;;;;;;;;508268;28;1379;-77
2023/06/10 00:34:19;;;;;;;6.53;5.40;;;;;;;;;;510021;28;1297;-77
2023/06/10 00:34:35;;;;;;;6.80;5.50;;;;;;;;;;510117;28;1341;-77
2023/06/10 00:34:51;;;;;;;6.05;5.22;;;;;;;;;;508400;28;1311;-76
2023/06/10 00:35:07;;;;;;;6.25;5.65;;;;;;;;;;508177;28;1308;-77
2023/06/10 00:35:23;;;;;;;6.53;5.70;;;;;;;;;;510251;28;1324;-76
2023/06/10 00:35:41;;;;;;;6.10;5.30;;;;;;;;;;508476;28;1232;-77
2023/06/10 00:35:57;;;;;;;5.75;5.15;;;;;;;;;;508568;28;1225;-77
2023/06/10 00:36:13;;;;;;;5.95;5.20;;;;;;;;;;505198;28;1323;-77
2023/06/10 00:36:29;;;;;;;6.93;5.40;;;;;;;;;;504607;28;1101;-76
2023/06/10 00:36:45;;;;;;;6.65;5.60;;;;;;;;;;505378;28;1237;-76
2023/06/10 00:37:01;;;;;;;6.47;5.68;;;;;;;;;;506581;28;1287;-76
2023/06/10 00:37:17;;;;;;;6.00;5.40;;;;;;;;;;509441;28;1127;-75
2023/06/10 00:37:35;;;;;;;5.82;5.20;;;;;;;;;;510639;28;1428;-76
2023/06/10 00:37:51;;;;;;;7.47;5.22;;;;;;;;;;509937;28;1471;-76
2023/06/10 00:38:07;;;;;;;6.90;5.30;;;;;;;;;;512121;28;1462;-76
2023/06/10 00:38:23;;;;;;;6.72;5.38;;;;;;;;;;508523;28;1386;-75
2023/06/10 00:38:40;;;;;;;6.90;5.32;;;;;;;;;;505795;28;1458;-75
2023/06/10 00:39:16;;;;;;;5.65;5.10;;;;;;;;;;507802;28;1323;-76
2023/06/10 00:39:32;;;;;;;6.40;5.10;;;;;;;;;;508117;28;1348;-77
2023/06/10 00:39:48;;;;;;;5.85;5.10;;;;;;;;;;508173;28;1141;-77
2023/06/10 00:40:05;;;;;;;5.80;5.30;;;;;;;;;;509953;28;1250;-76
2023/06/10 00:40:20;;;;;;;7.10;5.45;;;;;;;;;;509427;28;1413;-76
2023/06/10 00:40:40;;;;;;;7.65;5.35;;;;;;;;;;506776;28;1301;-75
2023/06/10 00:40:56;;;;;;;6.68;5.28;;;;;;;;;;506740;28;1298;-76
2023/06/10 00:41:12;;;;;;;7.15;5.47;;;;;;;;;;505510;28;1283;-77
2023/06/10 00:41:28;;;;;;;6.30;5.70;;;;;;;;;;508449;28;1384;-76
2023/06/10 00:41:43;;;;;;;6.45;5.65;;;;;;;;;;508910;28;997;-76
2023/06/10 00:41:59;;;;;;;6.95;5.60;;;;;;;;;;509446;28;1315;-77
2023/06/10 00:42:28;;;;;;;;;;;;;;;;;;;;;
2023/06/10 00:42:43;;;;;;;6.00;5.40;;;;;;;;;;510764;28;984;-76
2023/06/10 00:42:59;;;;;;;5.97;5.37;;;;;;;;;;509494;28;1276;-76
2023/06/10 00:43:15;;;;;;;6.70;5.40;;;;;;;;;;508224;28;1418;-77
2023/06/10 00:43:31;;;;;;;6.70;5.47;;;;;;;;;;510010;28;1002;-76
2023/06/10 00:43:47;;;;;;;5.70;5.05;;;;;;;;;;509527;28;1228;-76
2023/06/10 00:44:03;;;;;;;5.73;4.87;;;;;;;;;;509559;28;952;-77
2023/06/10 00:44:19;;;;;;;6.70;5.38;;;;;;;;;;508018;28;1498;-76
2023/06/10 00:44:35;;;;;;;6.68;5.57;;;;;;;;;;507592;28;1359;-77
2023/06/10 00:44:51;;;;;;;5.82;5.20;;;;;;;;;;505051;28;1518;-76
2023/06/10 00:45:07;;;;;;;6.25;5.30;;;;;;;;;;505980;28;1150;-77
2023/06/10 00:45:23;;;;;;;5.90;5.20;;;;;;;;;;507827;28;1381;-77
2023/06/10 00:45:39;;;;;;;5.70;5.10;;;;;;;;;;508799;28;1070;-77
2023/06/10 00:45:55;;;;;;;5.82;5.20;;;;;;;;;;507642;28;1413;-76
2023/06/10 00:46:13;;;;;;;7.17;5.57;;;;;;;;;;507684;28;1307;-77
2023/06/10 00:46:31;;;;;;;7.05;5.45;;;;;;;;;;507023;28;1394;-76
2023/06/10 00:46:49;;;;;;;5.85;5.25;;;;;;;;;;508164;28;1440;-77
2023/06/10 00:47:06;;;;;;;5.90;5.30;;;;;;;;;;508009;28;1262;-76
2023/06/10 00:47:25;;;;;;;5.82;5.22;;;;;;;;;;507655;28;1340;-77
2023/06/10 00:47:40;;;;;;;6.40;5.68;;;;;;;;;;507018;28;1306;-77
2023/06/10 00:47:56;;;;;;;6.65;5.70;;;;;;;;;;508842;28;1296;-78
2023/06/10 00:48:12;;;;;;;6.07;5.40;;;;;;;;;;507156;28;1358;-77
2023/06/10 00:48:31;;;;;;;5.80;5.20;;;;;;;;;;507131;28;944;-77
2023/06/10 00:48:46;;;;;;;5.80;5.30;;;;;;;;;;510704;28;1059;-77
2023/06/10 00:49:04;;;;;;;6.10;5.50;;;;;;;;;;508281;28;1441;-78
2023/06/10 00:49:20;;;;;;;6.20;5.60;;;;;;;;;;508362;28;1410;-77
2023/06/10 00:49:35;;;;;;;6.13;5.53;;;;;;;;;;508087;28;1218;-75
2023/06/10 00:49:51;;;;;;;7.40;5.50;;;;;;;;;;509292;28;1368;-76
2023/06/10 00:50:07;;;;;;;8.13;5.43;;;;;;;;;;508772;28;1204;-76
2023/06/10 00:50:25;;;;;;;7.50;5.32;;;;;;;;;;509009;28;1168;-76
2023/06/10 00:50:41;;;;;;;6.80;5.50;;;;;;;;;;509565;28;1856;-73
2023/06/10 00:50:58;;;;;;;6.33;5.47;;;;;;;;;;507363;28;1187;-76
2023/06/10 00:51:13;;;;;;;6.18;5.35;;;;;;;;;;509091;28;1419;-76
2023/06/10 00:51:32;;;;;;;7.30;5.45;;;;;;;;;;508983;28;1310;-76
2023/06/10 00:51:48;;;;;;;7.72;5.40;;;;;;;;;;507618;28;1340;-76
2023/06/10 00:52:06;;;;;;;6.38;5.53;;;;;;;;;;508163;28;1033;-76
2023/06/10 00:52:27;;;;;;;6.00;5.40;;;;;;;;;;507854;28;1201;-76
2023/06/10 00:52:46;;;;;;;6.65;5.40;;;;;;;;;;507710;28;1443;-76
2023/06/10 00:53:05;;;;;;;6.43;5.38;;;;;;;;;;506047;28;1499;-76
2023/06/10 00:53:22;;;;;;;6.55;5.50;;;;;;;;;;508319;28;1138;-75
2023/06/10 00:53:41;;;;;;;6.18;5.38;;;;;;;;;;508884;28;1459;-76
2023/06/10 00:53:57;;;;;;;6.05;5.20;;;;;;;;;;508222;28;1930;-76
2023/06/10 00:54:33;;;;;;;7.00;5.22;;;;;;;;;;508071;28;1409;-77
2023/06/10 00:54:50;;;;;;;7.00;5.50;;;;;;;;;;507567;28;1288;-76
2023/06/10 00:55:07;;;;;;;5.88;5.13;;;;;;;;;;507112;28;1382;-77
2023/06/10 00:55:28;;;;;;;6.40;5.10;;;;;;;;;;506640;28;1482;-76
2023/06/10 00:55:44;;;;;;;5.85;5.25;;;;;;;;;;508966;28;1137;-77
2023/06/10 00:55:59;;;;;;;5.70;5.20;;;;;;;;;;508753;28;1376;-76
2023/06/10 00:56:15;;;;;;;6.00;5.43;;;;;;;;;;509979;28;1391;-76
2023/06/10 00:56:34;;;;;;;6.57;5.68;;;;;;;;;;510034;28;1276;-76
2023/06/10 00:56:53;;;;;;;6.53;5.38;;;;;;;;;;509864;28;1422;-75
2023/06/10 00:57:09;;;;;;;6.00;5.40;;;;;;;;;;510913;28;1138;-75
2023/06/10 00:57:26;;;;;;;6.00;5.40;;;;;;;;;;510763;28;1318;-76
2023/06/10 00:57:44;;;;;;;6.35;5.35;;;;;;;;;;510352;28;1395;-76
2023/06/10 00:58:00;;;;;;;6.43;5.65;;;;;;;;;;510029;28;1132;-76
2023/06/10 00:58:19;;;;;;;6.38;5.65;;;;;;;;;;510502;28;1443;-76
2023/06/10 00:58:39;;;;;;;6.68;5.28;;;;;;;;;;510442;28;973;-76
2023/06/10 00:58:54;;;;;;;6.63;5.38;;;;;;;;;;507777;28;1220;-76
2023/06/10 00:59:10;;;;;;;6.25;5.32;;;;;;;;;;506011;28;1393;-76
2023/06/10 00:59:26;;;;;;;6.57;5.10;;;;;;;;;;506177;28;1240;-76
2023/06/10 00:59:47;;;;;;;6.55;5.05;;;;;;;;;;507581;28;1334;-76
2023/06/10 01:00:07;;;;;;;5.93;5.10;;;;;;;;;;507254;28;1376;-76
2023/06/10 01:00:23;;;;;;;7.03;5.23;;;;;;;;;;508558;28;1197;-77
2023/06/10 01:00:38;;;;;;;6.07;5.20;;;;;;;;;;508971;28;1422;-77
2023/06/10 01:00:55;;;;;;;6.50;5.40;;;;;;;;;;509336;28;963;-75
2023/06/10 01:01:12;;;;;;;6.65;5.85;;;;;;;;;;509860;28;1421;-73
2023/06/10 01:01:29;;;;;;;6.68;5.95;;;;;;;;;;511960;28;1298;-77
2023/06/10 01:01:49;;;;;;;7.10;6.07;;;;;;;;;;511966;28;1077;-76
2023/06/10 01:02:04;;;;;;;8.10;6.20;;;;;;;;;;512427;28;1355;-76
2023/06/10 01:02:21;;;;;;;7.78;6.38;;;;;;;;;;512666;28;1097;-77
2023/06/10 01:02:36;;;;;;;8.60;6.50;;;;;;;;;;510083;28;1311;-75
2023/06/10 01:02:53;;;;;;;7.93;6.25;;;;;;;;;;510802;28;1133;-75
2023/06/10 01:03:09;;;;;;;6.68;6.00;;;;;;;;;;510153;28;1022;-76
2023/06/10 01:03:32;;;;;;;6.73;6.00;;;;;;;;;;511080;28;1058;-75
2023/06/10 01:03:48;;;;;;;7.53;6.50;;;;;;;;;;510411;28;967;-76
2023/06/10 01:04:04;;;;;;;7.20;6.50;;;;;;;;;;512086;28;1538;-76
2023/06/10 01:04:19;;;;;;;7.20;6.40;;;;;;;;;;510610;28;1308;-76
2023/06/10 01:04:36;;;;;;;7.25;6.35;;;;;;;;;;511660;28;1090;-75
2023/06/10 01:04:52;;;;;;;8.30;6.65;;;;;;;;;;510139;28;1315;-76
2023/06/10 01:05:09;;;;;;;8.63;6.80;;;;;;;;;;508492;28;1377;-75
2023/06/10 01:05:36;;;;;;;7.90;6.65;;;;;;;;;;505701;28;1419;-76
2023/06/10 01:06:01;;;;;;;7.60;6.80;;;;;;;;;;503241;28;983;-76
2023/06/10 01:06:57;;;;;;;7.60;6.90;;;;;;;;;;505697;28;1602;-76
2023/06/10 01:07:29;;;;;;;9.80;7.00;;;;;;;;;;509774;28;1377;-76
2023/06/10 01:08:04;;;;;;;7.68;6.90;;;;;;;;;;507947;28;1461;-77
2023/06/10 01:08:36;;;;;;;8.18;7.00;;;;;;;;;;508310;28;1331;-75
2023/06/10 01:09:19;;;;;;;7.47;6.70;;;;;;;;;;505946;28;1479;-75
2023/06/10 01:09:51;;;;;;;7.30;6.60;;;;;;;;;;508929;28;1647;-76
2023/06/10 01:10:19;;;;;;;9.55;6.90;;;;;;;;;;509446;28;1505;-76
2023/06/10 01:10:41;;;;;;;8.55;7.13;;;;;;;;;;507282;28;1394;-76
2023/06/10 01:11:06;;;;;;;7.30;6.70;;;;;;;;;;508216;28;1335;-75
2023/06/10 01:11:28;;;;;;;7.57;6.78;;;;;;;;;;508812;28;1375;-75
2023/06/10 01:11:51;;;;;;;9.30;7.05;;;;;;;;;;509212;28;1566;-75
2023/06/10 01:12:39;;;;;;;7.60;6.85;;;;;;;;;;510453;28;1447;-76
2023/06/10 01:13:02;;;;;;;7.70;7.00;;;;;;;;;;508222;28;1354;-77
2023/06/10 01:13:23;;;;;;;7.88;7.07;;;;;;;;;;508062;28;1509;-76
2023/06/10 01:13:41;;;;;;;9.80;6.97;;;;;;;;;;506905;28;1329;-76
2023/06/10 01:13:59;;;;;;;7.70;6.88;;;;;;;;;;507291;28;2007;-75
2023/06/10 01:14:16;;;;;;;7.80;6.97;;;;;;;;;;505366;28;1529;-75
2023/06/10 01:14:32;;;;;;;8.40;6.97;;;;;;;;;;505912;28;1360;-75
2023/06/10 01:14:48;;;;;;;8.68;7.00;;;;;;;;;;505203;28;1451;-76
2023/06/10 01:15:04;;;;;;;8.02;7.20;;;;;;;;;;504965;28;1279;-75
2023/06/10 01:15:22;;;;;;;8.00;7.30;;;;;;;;;;505367;28;1217;-76
2023/06/10 01:15:38;;;;;;;7.90;7.18;;;;;;;;;;505554;28;1342;-74
2023/06/10 01:15:55;;;;;;;8.20;6.97;;;;;;;;;;506653;28;1293;-75
2023/06/10 01:16:12;;;;;;;8.90;6.80;;;;;;;;;;506537;28;1399;-75
2023/06/10 01:16:28;;;;;;;8.18;6.85;;;;;;;;;;507429;28;959;-75
2023/06/10 01:16:45;;;;;;;7.72;7.00;;;;;;;;;;510520;28;1324;-75
2023/06/10 01:17:03;;;;;;;8.18;6.93;;;;;;;;;;507624;28;1331;-76
2023/06/10 01:17:19;;;;;;;8.35;6.75;;;;;;;;;;507846;28;1404;-75
2023/06/10 01:17:59;;;;;;;8.15;7.18;;;;;;;;;;504685;28;1454;-76
2023/06/10 01:18:18;;;;;;;7.93;7.03;;;;;;;;;;506202;28;1443;-76
2023/06/10 01:18:34;;;;;;;7.57;6.85;;;;;;;;;;505645;28;1327;-77
2023/06/10 01:18:52;;;;;;;7.43;6.82;;;;;;;;;;506595;28;1525;-76
2023/06/10 01:19:09;;;;;;;8.00;7.20;;;;;;;;;;507364;28;1360;-75
2023/06/10 01:19:25;;;;;;;7.97;7.13;;;;;;;;;;508912;28;1149;-75
2023/06/10 01:19:43;;;;;;;7.47;6.77;;;;;;;;;;506508;28;1275;-76
2023/06/10 01:19:59;;;;;;;7.85;7.07;;;;;;;;;;508242;28;2047;-75
2023/06/10 01:20:15;;;;;;;9.77;7.25;;;;;;;;;;507146;28;1350;-76
2023/06/10 01:20:32;;;;;;;8.68;7.07;;;;;;;;;;507506;28;968;-77
2023/06/10 01:20:48;;;;;;;7.70;7.00;;;;;;;;;;508371;28;1347;-77
2023/06/10 01:21:04;;;;;;;7.90;7.20;;;;;;;;;;508748;28;1404;-77
2023/06/10 01:21:24;;;;;;;8.20;7.50;;;;;;;;;;506431;28;1300;-77
2023/06/10 01:21:40;;;;;;;7.55;6.85;;;;;;;;;;508059;28;1055;-77
2023/06/10 01:21:58;;;;;;;7.28;6.68;;;;;;;;;;506493;28;1260;-76
2023/06/10 01:22:15;;;;;;;7.95;6.93;;;;;;;;;;508988;28;1485;-75
2023/06/10 01:22:32;;;;;;;7.70;6.88;;;;;;;;;;508835;28;1315;-76
2023/06/10 01:22:47;;;;;;;7.75;6.95;;;;;;;;;;509798;28;1314;-76
2023/06/10 01:23:03;;;;;;;7.72;6.93;;;;;;;;;;510982;28;1274;-76
2023/06/10 01:23:19;;;;;;;7.40;6.70;;;;;;;;;;510242;28;1332;-74
2023/06/10 01:23:35;;;;;;;7.80;7.00;;;;;;;;;;510698;28;1205;-75
2023/06/10 01:23:55;;;;;;;8.55;7.20;;;;;;;;;;508574;28;1383;-76
2023/06/10 01:24:11;;;;;;;9.32;7.47;;;;;;;;;;507720;28;1348;-76
2023/06/10 01:24:28;;;;;;;8.07;7.13;;;;;;;;;;508424;28;1349;-75
2023/06/10 01:24:44;;;;;;;7.60;6.90;;;;;;;;;;508159;28;995;-75
2023/06/10 01:25:03;;;;;;;7.88;7.18;;;;;;;;;;508085;28;1280;-76
2023/06/10 01:25:20;;;;;;;7.75;7.05;;;;;;;;;;507778;28;1332;-76
2023/06/10 01:25:44;;;;;;;7.40;6.78;;;;;;;;;;508124;28;1031;-76
2023/06/10 01:26:10;;;;;;;7.75;7.05;;;;;;;;;;509159;28;1292;-75
2023/06/10 01:26:31;;;;;;;8.20;7.05;;;;;;;;;;507914;28;1243;-76
2023/06/10 01:27:00;;;;;;;7.75;6.95;;;;;;;;;;509517;28;1511;-77
2023/06/10 01:27:19;;;;;;;8.18;7.15;;;;;;;;;;510057;28;1456;-75
2023/06/10 01:28:07;;;;;;;7.78;7.07;;;;;;;;;;509430;28;1415;-75
2023/06/10 01:28:32;;;;;;;8.65;7.25;;;;;;;;;;508129;28;1230;-76
2023/06/10 01:28:56;;;;;;;8.05;7.22;;;;;;;;;;505963;28;1409;-76
2023/06/10 01:29:17;;;;;;;7.82;7.03;;;;;;;;;;504695;28;2197;-76
2023/06/10 01:29:48;;;;;;;8.25;7.18;;;;;;;;;;510026;28;1050;-75
2023/06/10 01:30:11;;;;;;;7.82;6.80;;;;;;;;;;508075;28;1508;-76
2023/06/10 01:30:30;;;;;;;9.35;7.05;;;;;;;;;;508446;28;1172;-76
2023/06/10 01:31:33;;;;;;;7.85;6.90;;;;;;;;;;506865;28;1543;-76
2023/06/10 01:31:57;;;;;;;7.80;7.00;;;;;;;;;;503926;28;1659;-77
2023/06/10 01:32:21;;;;;;;7.40;6.70;;;;;;;;;;504661;28;1423;-77
2023/06/10 01:32:50;;;;;;;7.68;6.97;;;;;;;;;;505416;28;1308;-76
2023/06/10 01:33:09;;;;;;;7.70;7.00;;;;;;;;;;508794;28;1712;-75
2023/06/10 01:33:33;;;;;;;8.00;7.20;;;;;;;;;;508947;28;1358;-76
2023/06/10 01:33:52;;;;;;;8.00;7.20;;;;;;;;;;506340;28;1899;-75
2023/06/10 01:34:12;;;;;;;8.68;7.00;;;;;;;;;;507894;28;1617;-76
2023/06/10 01:34:30;;;;;;;8.68;7.30;;;;;;;;;;507583;28;1337;-77
2023/06/10 01:34:48;;;;;;;7.95;7.20;;;;;;;;;;508829;28;1331;-76
2023/06/10 01:35:06;;;;;;;7.90;7.20;;;;;;;;;;508356;28;1717;-75
2023/06/10 01:35:25;;;;;;;8.27;7.38;;;;;;;;;;506245;28;1327;-76
2023/06/10 01:35:44;;;;;;;10.30;7.18;;;;;;;;;;506761;28;1020;-75
2023/06/10 01:36:02;;;;;;;8.38;7.07;;;;;;;;;;507453;28;1374;-76
2023/06/10 01:36:19;;;;;;;7.55;6.78;;;;;;;;;;507833;28;1222;-75
2023/06/10 01:36:56;;;;;;;7.47;6.78;;;;;;;;;;508846;28;1099;-76
2023/06/10 01:37:16;;;;;;;7.35;6.65;;;;;;;;;;511122;28;1192;-76
2023/06/10 01:37:39;;;;;;;7.90;7.00;;;;;;;;;;510685;28;1396;-77
2023/06/10 01:38:00;;;;;;;7.63;6.90;;;;;;;;;;511186;28;1078;-75
2023/06/10 01:38:17;;;;;;;7.50;6.75;;;;;;;;;;512902;28;983;-76
2023/06/10 01:38:40;;;;;;;7.95;6.80;;;;;;;;;;510781;28;1397;-77
2023/06/10 01:38:58;;;;;;;7.65;6.93;;;;;;;;;;508493;28;1398;-75
2023/06/10 01:39:20;;;;;;;7.82;7.03;;;;;;;;;;507956;28;1475;-75
2023/06/10 01:39:39;;;;;;;7.50;6.75;;;;;;;;;;510311;28;1250;-75
2023/06/10 01:39:58;;;;;;;7.50;6.80;;;;;;;;;;508829;28;1289;-76
2023/06/10 01:40:15;;;;;;;7.90;6.95;;;;;;;;;;509314;28;1315;-76
2023/06/10 01:40:32;;;;;;;7.85;7.05;;;;;;;;;;509353;28;1317;-76
2023/06/10 01:40:49;;;;;;;7.75;7.05;;;;;;;;;;509215;28;1293;-77
2023/06/10 01:41:06;;;;;;;7.65;6.93;;;;;;;;;;508051;28;1190;-76
2023/06/10 01:41:23;;;;;;;7.90;7.10;;;;;;;;;;506787;28;1170;-77
2023/06/10 01:41:40;;;;;;;7.82;6.97;;;;;;;;;;507671;28;1294;-74
2023/06/10 01:41:56;;;;;;;7.68;6.88;;;;;;;;;;509040;28;1359;-75
2023/06/10 01:42:12;;;;;;;7.97;7.03;;;;;;;;;;507417;28;1274;-75
2023/06/10 01:42:31;;;;;;;8.52;6.80;;;;;;;;;;507390;28;1389;-75
2023/06/10 01:42:47;;;;;;;8.60;6.78;;;;;;;;;;507998;28;1359;-76
2023/06/10 01:43:06;;;;;;;7.60;6.80;;;;;;;;;;508067;28;1226;-76
2023/06/10 01:43:22;;;;;;;7.15;6.50;;;;;;;;;;508384;28;1354;-76
2023/06/10 01:43:38;;;;;;;7.22;6.53;;;;;;;;;;508884;28;1377;-75
2023/06/10 01:43:55;;;;;;;7.40;6.70;;;;;;;;;;508945;28;1383;-76
2023/06/10 01:44:19;;;;;;;7.10;6.50;;;;;;;;;;507802;28;1341;-75
2023/06/10 01:44:35;;;;;;;7.05;6.45;;;;;;;;;;506326;28;1257;-76
2023/06/10 01:44:52;;;;;;;7.28;6.65;;;;;;;;;;508111;28;1334;-75
2023/06/10 01:45:09;;;;;;;7.32;6.57;;;;;;;;;;508470;28;1072;-76
2023/06/10 01:45:28;;;;;;;7.90;6.53;;;;;;;;;;509838;28;1502;-76
2023/06/10 01:45:44;;;;;;;7.60;6.75;;;;;;;;;;510269;28;990;-75
2023/06/10 01:46:00;;;;;;;7.75;6.63;;;;;;;;;;506727;28;1302;-77
2023/06/10 01:46:19;;;;;;;8.90;6.95;;;;;;;;;;506861;28;991;-75
2023/06/10 01:46:35;;;;;;;8.95;7.03;;;;;;;;;;506636;28;1382;-77
2023/06/10 01:46:51;;;;;;;7.40;6.68;;;;;;;;;;507854;28;1276;-76
2023/06/10 01:47:12;;;;;;;7.63;6.83;;;;;;;;;;508154;28;1466;-77
2023/06/10 01:47:27;;;;;;;7.70;6.78;;;;;;;;;;507528;28;1277;-76
2023/06/10 01:47:43;;;;;;;7.50;6.78;;;;;;;;;;508340;28;1383;-76
2023/06/10 01:47:59;;;;;;;7.68;6.88;;;;;;;;;;509130;28;1354;-75
2023/06/10 01:48:15;;;;;;;7.80;7.05;;;;;;;;;;509237;28;1504;-75
2023/06/10 01:48:32;;;;;;;8.00;7.20;;;;;;;;;;507243;28;1345;-75
2023/06/10 01:48:48;;;;;;;7.88;7.18;;;;;;;;;;508296;28;1322;-75
2023/06/10 01:49:04;;;;;;;8.23;6.97;;;;;;;;;;508846;28;1513;-75
2023/06/10 01:49:23;;;;;;;8.35;6.85;;;;;;;;;;507736;28;1411;-76
2023/06/10 01:49:39;;;;;;;7.82;7.03;;;;;;;;;;509785;28;1343;-75
2023/06/10 01:49:58;;;;;;;7.73;7.00;;;;;;;;;;510466;28;1391;-75
2023/06/10 01:50:16;;;;;;;7.65;6.95;;;;;;;;;;508818;28;1296;-76
2023/06/10 01:50:32;;;;;;;7.20;6.60;;;;;;;;;;510166;28;1383;-76
2023/06/10 01:50:48;;;;;;;7.75;6.80;;;;;;;;;;509386;28;1256;-77
2023/06/10 01:51:04;;;;;;;7.82;6.88;;;;;;;;;;509764;28;1488;-75
2023/06/10 01:51:20;;;;;;;7.82;7.03;;;;;;;;;;509158;28;1021;-76
2023/06/10 01:51:36;;;;;;;7.78;6.97;;;;;;;;;;510092;28;1306;-75
2023/06/10 01:51:51;;;;;;;7.72;6.93;;;;;;;;;;511107;28;1145;-76
2023/06/10 01:52:07;;;;;;;8.32;7.07;;;;;;;;;;512256;28;1151;-75
2023/06/10 01:52:23;;;;;;;8.02;6.85;;;;;;;;;;512742;28;1116;-75
2023/06/10 01:52:39;;;;;;;7.40;6.70;;;;;;;;;;510228;28;1269;-75
2023/06/10 01:52:56;;;;;;;7.63;6.93;;;;;;;;;;510363;28;1321;-75
2023/06/10 01:53:12;;;;;;;7.78;7.07;;;;;;;;;;508796;28;1538;-75
2023/06/10 01:53:28;;;;;;;7.68;6.93;;;;;;;;;;509548;28;1193;-76